sensor_id;sensor_type;location;lat;lon;timestamp;P1;durP1;ratioP1;P2;durP2;ratioP2
9950;SDS011;24074;49.254;6.702;2022-11-25T18:49:38;6.00;;;3.70;;
9950;SDS011;24074;49.254;6.702;2022-11-25T18:52:03;5.23;;;3.80;;
9950;SDS011;24074;49.254;6.702;2022-11-25T18:54:29;5.37;;;4.17;;
9950;SDS011;24074;49.254;6.702;2022-11-25T18:56:55;8.47;;;7.67;;
9950;SDS011;24074;49.254;6.702;2022-11-25T18:59:28;6.70;;;5.57;;
9950;SDS011;24074;49.254;6.702;2022-11-25T19:01:57;7.20;;;5.40;;
9950;SDS011;24074;49.254;6.702;2022-11-25T19:04:23;7.33;;;4.93;;
9950;SDS011;24074;49.254;6.702;2022-11-25T19:06:48;6.60;;;4.57;;
9950;SDS011;24074;49.254;6.702;2022-11-25T19:09:14;8.20;;;4.73;;
9950;SDS011;24074;49.254;6.702;2022-11-25T19:11:44;6.33;;;4.70;;
9950;SDS011;24074;49.254;6.702;2022-11-25T19:14:21;8.83;;;4.30;;
9950;SDS011;24074;49.254;6.702;2022-11-25T19:16:57;5.77;;;3.77;;
9950;SDS011;24074;49.254;6.702;2022-11-25T19:19:25;7.83;;;3.80;;
9950;SDS011;24074;49.254;6.702;2022-11-25T19:21:51;7.93;;;3.63;;
9950;SDS011;24074;49.254;6.702;2022-11-25T19:24:17;8.47;;;5.03;;
9950;SDS011;24074;49.254;6.702;2022-11-25T19:26:44;8.73;;;4.67;;
9950;SDS011;24074;49.254;6.702;2022-11-25T19:29:15;8.73;;;4.30;;
9950;SDS011;24074;49.254;6.702;2022-11-25T19:31:43;9.43;;;4.43;;
9950;SDS011;24074;49.254;6.702;2022-11-25T19:34:12;7.77;;;4.13;;
9950;SDS011;24074;49.254;6.702;2022-11-25T19:36:54;12.30;;;3.63;;
9950;SDS011;24074;49.254;6.702;2022-11-25T19:39:20;8.57;;;3.30;;
9950;SDS011;24074;49.254;6.702;2022-11-25T19:41:45;15.00;;;8.10;;
9950;SDS011;24074;49.254;6.702;2022-11-25T19:44:11;20.50;;;14.97;;
9950;SDS011;24074;49.254;6.702;2022-11-25T19:46:37;10.73;;;5.93;;
9950;SDS011;24074;49.254;6.702;2022-11-25T19:49:08;10.03;;;5.30;;
9950;SDS011;24074;49.254;6.702;2022-11-25T19:51:38;14.07;;;5.30;;
9950;SDS011;24074;49.254;6.702;2022-11-25T19:54:07;8.63;;;4.27;;
9950;SDS011;24074;49.254;6.702;2022-11-25T19:56:37;7.47;;;2.90;;
9950;SDS011;24074;49.254;6.702;2022-11-25T19:59:04;10.13;;;3.47;;
9950;SDS011;24074;49.254;6.702;2022-11-25T20:01:30;7.77;;;3.00;;
9950;SDS011;24074;49.254;6.702;2022-11-25T20:03:58;9.00;;;3.80;;
9950;SDS011;24074;49.254;6.702;2022-11-25T20:06:24;10.20;;;4.80;;
9950;SDS011;24074;49.254;6.702;2022-11-25T20:08:50;11.23;;;4.43;;
9950;SDS011;24074;49.254;6.702;2022-11-25T20:11:16;10.00;;;4.57;;
9950;SDS011;24074;49.254;6.702;2022-11-25T20:13:42;11.43;;;4.43;;
9950;SDS011;24074;49.254;6.702;2022-11-25T20:16:16;10.30;;;4.67;;
9950;SDS011;24074;49.254;6.702;2022-11-25T20:18:44;9.87;;;4.50;;
9950;SDS011;24074;49.254;6.702;2022-11-25T20:21:25;9.57;;;3.87;;
9950;SDS011;24074;49.254;6.702;2022-11-25T20:23:56;7.80;;;4.03;;
9950;SDS011;24074;49.254;6.702;2022-11-25T20:26:35;10.73;;;3.67;;
9950;SDS011;24074;49.254;6.702;2022-11-25T20:29:03;11.43;;;4.33;;
9950;SDS011;24074;49.254;6.702;2022-11-25T20:31:39;8.10;;;4.07;;
9950;SDS011;24074;49.254;6.702;2022-11-25T20:34:05;8.93;;;4.03;;
9950;SDS011;24074;49.254;6.702;2022-11-25T20:36:31;10.87;;;6.03;;
9950;SDS011;24074;49.254;6.702;2022-11-25T20:39:00;16.17;;;8.10;;
9950;SDS011;24074;49.254;6.702;2022-11-25T20:41:27;12.73;;;7.40;;
9950;SDS011;24074;49.254;6.702;2022-11-25T20:43:54;18.07;;;10.20;;
9950;SDS011;24074;49.254;6.702;2022-11-25T20:46:22;8.27;;;6.30;;
9950;SDS011;24074;49.254;6.702;2022-11-25T20:48:52;12.37;;;5.80;;
9950;SDS011;24074;49.254;6.702;2022-11-25T20:51:19;12.07;;;7.67;;
9950;SDS011;24074;49.254;6.702;2022-11-25T20:53:47;13.40;;;8.90;;
9950;SDS011;24074;49.254;6.702;2022-11-25T20:56:15;12.40;;;7.30;;
9950;SDS011;24074;49.254;6.702;2022-11-25T20:58:42;12.10;;;6.37;;
9950;SDS011;24074;49.254;6.702;2022-11-25T21:01:09;8.50;;;5.23;;
9950;SDS011;24074;49.254;6.702;2022-11-25T21:03:35;8.83;;;5.33;;
9950;SDS011;24074;49.254;6.702;2022-11-25T21:06:00;8.13;;;5.03;;
9950;SDS011;24074;49.254;6.702;2022-11-25T21:08:36;8.73;;;4.93;;
9950;SDS011;24074;49.254;6.702;2022-11-25T21:11:01;7.40;;;4.97;;
9950;SDS011;24074;49.254;6.702;2022-11-25T21:13:28;9.77;;;5.10;;
9950;SDS011;24074;49.254;6.702;2022-11-25T21:15:54;10.03;;;5.37;;
9950;SDS011;24074;49.254;6.702;2022-11-25T21:18:21;9.17;;;5.57;;
9950;SDS011;24074;49.254;6.702;2022-11-25T21:20:48;9.50;;;5.70;;
9950;SDS011;24074;49.254;6.702;2022-11-25T21:23:16;12.43;;;6.10;;
9950;SDS011;24074;49.254;6.702;2022-11-25T21:25:45;11.40;;;6.10;;
9950;SDS011;24074;49.254;6.702;2022-11-25T21:28:18;9.57;;;5.90;;
9950;SDS011;24074;49.254;6.702;2022-11-25T21:30:46;10.83;;;5.40;;
9950;SDS011;24074;49.254;6.702;2022-11-25T21:33:12;11.03;;;5.87;;
9950;SDS011;24074;49.254;6.702;2022-11-25T21:35:38;7.97;;;6.10;;
9950;SDS011;24074;49.254;6.702;2022-11-25T21:38:07;7.93;;;6.47;;
9950;SDS011;24074;49.254;6.702;2022-11-25T21:40:43;13.60;;;6.67;;
9950;SDS011;24074;49.254;6.702;2022-11-25T21:43:16;9.90;;;5.80;;
9950;SDS011;24074;49.254;6.702;2022-11-25T21:46:03;12.67;;;6.00;;
9950;SDS011;24074;49.254;6.702;2022-11-25T21:48:31;10.27;;;6.43;;
9950;SDS011;24074;49.254;6.702;2022-11-25T21:50:57;11.87;;;8.43;;
9950;SDS011;24074;49.254;6.702;2022-11-25T21:53:23;18.40;;;9.70;;
9950;SDS011;24074;49.254;6.702;2022-11-25T21:55:49;16.50;;;10.17;;
9950;SDS011;24074;49.254;6.702;2022-11-25T21:58:15;22.93;;;11.43;;
9950;SDS011;24074;49.254;6.702;2022-11-25T22:00:50;28.87;;;12.60;;
9950;SDS011;24074;49.254;6.702;2022-11-25T22:03:18;17.10;;;12.13;;
9950;SDS011;24074;49.254;6.702;2022-11-25T22:05:45;16.17;;;12.77;;
9950;SDS011;24074;49.254;6.702;2022-11-25T22:08:12;17.37;;;9.43;;
9950;SDS011;24074;49.254;6.702;2022-11-25T22:10:38;13.33;;;7.37;;
9950;SDS011;24074;49.254;6.702;2022-11-25T22:13:05;12.57;;;7.87;;
9950;SDS011;24074;49.254;6.702;2022-11-25T22:15:33;14.13;;;7.73;;
9950;SDS011;24074;49.254;6.702;2022-11-25T22:18:00;9.13;;;6.30;;
9950;SDS011;24074;49.254;6.702;2022-11-25T22:20:27;9.63;;;8.30;;
9950;SDS011;24074;49.254;6.702;2022-11-25T22:22:58;12.07;;;8.93;;
9950;SDS011;24074;49.254;6.702;2022-11-25T22:25:26;11.23;;;10.07;;
9950;SDS011;24074;49.254;6.702;2022-11-25T22:27:53;16.30;;;13.33;;
9950;SDS011;24074;49.254;6.702;2022-11-25T22:30:20;14.63;;;11.10;;
9950;SDS011;24074;49.254;6.702;2022-11-25T22:32:48;13.60;;;9.60;;
9950;SDS011;24074;49.254;6.702;2022-11-25T22:35:25;14.23;;;9.77;;
9950;SDS011;24074;49.254;6.702;2022-11-25T22:37:51;11.43;;;8.63;;
9950;SDS011;24074;49.254;6.702;2022-11-25T22:40:17;16.97;;;9.33;;
9950;SDS011;24074;49.254;6.702;2022-11-25T22:42:44;14.57;;;9.70;;
9950;SDS011;24074;49.254;6.702;2022-11-25T22:45:16;19.83;;;11.83;;
9950;SDS011;24074;49.254;6.702;2022-11-25T22:47:51;17.73;;;10.87;;
9950;SDS011;24074;49.254;6.702;2022-11-25T22:52:48;31.43;;;12.77;;
9950;SDS011;24074;49.254;6.702;2022-11-25T22:57:52;32.00;;;12.00;;
9950;SDS011;24074;49.254;6.702;2022-11-25T23:00:21;21.23;;;10.83;;
9950;SDS011;24074;49.254;6.702;2022-11-25T23:02:51;20.37;;;11.17;;
9950;SDS011;24074;49.254;6.702;2022-11-25T23:07:51;17.10;;;10.33;;
9950;SDS011;24074;49.254;6.702;2022-11-25T23:10:21;16.53;;;10.87;;
9950;SDS011;24074;49.254;6.702;2022-11-25T23:12:51;18.43;;;10.90;;
9950;SDS011;24074;49.254;6.702;2022-11-25T23:15:18;10.90;;;9.00;;
9950;SDS011;24074;49.254;6.702;2022-11-25T23:17:47;12.53;;;8.03;;
9950;SDS011;24074;49.254;6.702;2022-11-25T23:23:00;10.07;;;7.70;;
9950;SDS011;24074;49.254;6.702;2022-11-25T23:25:46;9.30;;;6.93;;
9950;SDS011;24074;49.254;6.702;2022-11-25T23:28:12;7.53;;;6.63;;
9950;SDS011;24074;49.254;6.702;2022-11-25T23:30:48;7.90;;;6.50;;
9950;SDS011;24074;49.254;6.702;2022-11-25T23:33:18;8.37;;;6.47;;
9950;SDS011;24074;49.254;6.702;2022-11-25T23:35:52;9.67;;;6.60;;
9950;SDS011;24074;49.254;6.702;2022-11-25T23:38:20;7.00;;;6.30;;
9950;SDS011;24074;49.254;6.702;2022-11-25T23:40:48;8.77;;;6.30;;
9950;SDS011;24074;49.254;6.702;2022-11-25T23:43:14;8.60;;;6.33;;
9950;SDS011;24074;49.254;6.702;2022-11-25T23:45:51;10.10;;;6.70;;
9950;SDS011;24074;49.254;6.702;2022-11-25T23:48:22;12.17;;;7.40;;
9950;SDS011;24074;49.254;6.702;2022-11-25T23:50:52;12.27;;;7.80;;
9950;SDS011;24074;49.254;6.702;2022-11-25T23:53:23;14.53;;;7.37;;
9950;SDS011;24074;49.254;6.702;2022-11-25T23:55:51;11.87;;;8.40;;
9950;SDS011;24074;49.254;6.702;2022-11-25T23:58:20;16.73;;;9.30;;
